Mersa-matruh, Marsa Matruh International Airport (HEMM)

NameMarsa Matruh International Airport
CityMersa-matruh
CountryEgypt
ICAOHEMM
IATAMUH
Altitude29 m
CoordinatesGoogle Map
Live Air TrafficLiveATC.net
METARHEMM 280700Z 26008KT CAVOK 12/04 Q1021 NOSIG
2020-01-28 07:00:00 Wind: West-Southwest (260°) 4.12 m/s - Visibility: > 10000 m - Weather: CAVOK - Temperature: 12 °C - Dew point: 4 °C - Humidity: 58.3% - Pressure: 1021 hPa
Statistics

The table below shows the detailed information of all flights to/from Mersa-matruh, Marsa Matruh International Airport (HEMM).